createdAt,value
2022-09-28T00:01:10.615Z,16.47
2022-09-28T00:03:37.733Z,16.25
2022-09-28T00:06:07.478Z,16.08
2022-09-28T00:08:35.356Z,15.91
2022-09-28T00:11:03.642Z,15.71
2022-09-28T00:13:33.021Z,15.70
2022-09-28T00:16:04.719Z,15.83
2022-09-28T00:18:32.292Z,15.77
2022-09-28T00:21:02.534Z,15.69
2022-09-28T00:23:29.753Z,15.60
2022-09-28T00:25:56.762Z,15.46
2022-09-28T00:28:23.572Z,15.46
2022-09-28T00:30:55.524Z,15.41
2022-09-28T00:33:22.477Z,15.44
2022-09-28T00:35:58.324Z,15.34
2022-09-28T00:38:30.907Z,15.24
2022-09-28T00:40:57.920Z,15.22
2022-09-28T00:43:26.014Z,15.10
2022-09-28T00:46:15.943Z,15.07
2022-09-28T00:48:58.903Z,14.99
2022-09-28T00:51:27.124Z,15.13
2022-09-28T00:53:56.197Z,15.16
2022-09-28T00:56:28.337Z,15.35
2022-09-28T00:58:57.563Z,15.21
2022-09-28T01:01:24.730Z,15.38
2022-09-28T01:03:52.140Z,15.34
2022-09-28T01:06:24.557Z,15.23
2022-09-28T01:08:53.740Z,15.39
2022-09-28T01:11:22.176Z,15.39
2022-09-28T01:13:50.788Z,15.26
2022-09-28T01:16:27.043Z,15.13
2022-09-28T01:19:18.509Z,15.37
2022-09-28T01:22:14.681Z,15.40
2022-09-28T01:24:57.173Z,15.46
2022-09-28T01:27:38.384Z,15.63
2022-09-28T01:30:08.503Z,15.72
2022-09-28T01:33:01.489Z,15.81
2022-09-28T01:35:31.366Z,15.77
2022-09-28T01:38:04.169Z,15.79
2022-09-28T01:40:34.482Z,15.84
2022-09-28T01:43:06.443Z,15.85
2022-09-28T01:45:40.676Z,15.72
2022-09-28T01:48:10.871Z,15.72
2022-09-28T01:50:41.142Z,15.85
2022-09-28T01:53:51.522Z,15.79
2022-09-28T01:56:31.466Z,15.83
2022-09-28T01:59:13.585Z,15.64
2022-09-28T02:02:00.739Z,15.49
2022-09-28T02:04:36.637Z,15.38
2022-09-28T02:07:31.460Z,15.32
2022-09-28T02:10:13.090Z,15.01
2022-09-28T02:12:46.528Z,14.82
2022-09-28T02:15:32.147Z,14.88
2022-09-28T02:18:02.483Z,15.01
2022-09-28T02:20:34.458Z,15.07
2022-09-28T02:23:05.707Z,14.99
2022-09-28T02:25:43.801Z,14.95
2022-09-28T02:28:16.030Z,14.63
2022-09-28T02:30:45.122Z,14.33
2022-09-28T02:33:26.058Z,14.08
2022-09-28T02:35:55.609Z,13.73
2022-09-28T02:38:24.258Z,13.53
2022-09-28T02:41:04.632Z,13.43
2022-09-28T02:44:42.927Z,13.64
2022-09-28T02:47:15.835Z,13.72
2022-09-28T02:49:55.051Z,13.60
2022-09-28T02:52:50.406Z,13.57
2022-09-28T02:55:20.850Z,13.53
2022-09-28T02:57:57.020Z,13.78
2022-09-28T03:00:25.495Z,13.92
2022-09-28T03:03:04.510Z,14.15
2022-09-28T03:05:39.846Z,14.42
2022-09-28T03:08:19.740Z,14.46
2022-09-28T03:10:49.596Z,14.52
2022-09-28T03:13:18.212Z,14.68
2022-09-28T03:15:48.656Z,14.54
2022-09-28T03:18:17.667Z,14.72
2022-09-28T03:20:44.893Z,14.44
2022-09-28T03:23:29.950Z,14.32
2022-09-28T03:26:01.469Z,14.38
2022-09-28T03:28:29.859Z,14.25
2022-09-28T03:30:57.706Z,14.20
2022-09-28T03:33:24.865Z,14.09
2022-09-28T03:35:51.990Z,14.00
2022-09-28T03:38:20.491Z,13.85
2022-09-28T03:40:59.379Z,13.71
2022-09-28T03:43:31.183Z,13.85
2022-09-28T03:46:01.791Z,13.73
2022-09-28T03:48:35.784Z,13.67
2022-09-28T03:51:05.523Z,13.80
2022-09-28T03:53:33.469Z,13.93
2022-09-28T03:56:06.543Z,14.07
2022-09-28T03:58:34.246Z,13.94
2022-09-28T04:01:07.406Z,13.80
2022-09-28T04:03:35.779Z,13.70
2022-09-28T04:06:02.885Z,13.65
2022-09-28T04:08:30.324Z,13.41
2022-09-28T04:11:01.515Z,13.27
2022-09-28T04:13:30.068Z,13.16
2022-09-28T04:16:01.138Z,13.32
2022-09-28T04:18:31.298Z,13.42
2022-09-28T04:21:16.152Z,13.51
2022-09-28T04:23:54.360Z,13.50
2022-09-28T04:26:26.495Z,13.24
2022-09-28T04:29:12.798Z,13.14
2022-09-28T04:31:42.525Z,13.09
2022-09-28T04:34:09.550Z,13.09
2022-09-28T04:36:36.962Z,13.17
2022-09-28T04:39:05.476Z,13.30
2022-09-28T04:41:33.537Z,13.44
2022-09-28T04:44:01.093Z,13.70
2022-09-28T04:46:28.194Z,13.75
2022-09-28T04:49:27.474Z,14.07
2022-09-28T04:52:02.560Z,14.05
2022-09-28T04:54:29.395Z,14.07
2022-09-28T04:56:58.601Z,13.94
2022-09-28T04:59:26.458Z,14.15
2022-09-28T05:01:54.215Z,14.10
2022-09-28T05:04:25.573Z,14.12
2022-09-28T05:07:11.533Z,14.03
2022-09-28T05:09:38.787Z,14.13
2022-09-28T05:12:06.000Z,14.13
2022-09-28T05:14:33.034Z,14.31
2022-09-28T05:17:06.795Z,14.28
2022-09-28T05:19:40.911Z,14.26
2022-09-28T05:22:13.949Z,14.14
2022-09-28T05:24:46.417Z,14.42
2022-09-28T05:27:13.826Z,14.47
2022-09-28T05:29:41.267Z,14.38
2022-09-28T05:32:49.046Z,14.56
2022-09-28T05:35:29.701Z,14.58
2022-09-28T05:37:57.475Z,14.83
2022-09-28T05:40:24.445Z,15.04
2022-09-28T05:42:51.411Z,15.26
2022-09-28T05:45:18.410Z,15.55
2022-09-28T05:47:50.775Z,15.74
2022-09-28T05:50:21.098Z,16.05
2022-09-28T05:52:58.453Z,16.46
2022-09-28T05:55:28.302Z,16.57
2022-09-28T05:58:00.246Z,16.70
2022-09-28T06:00:28.409Z,16.79
2022-09-28T06:03:03.411Z,17.01
2022-09-28T06:05:39.418Z,17.13
2022-09-28T06:08:10.297Z,17.25
2022-09-28T06:10:39.468Z,17.38
2022-09-28T06:13:06.981Z,17.73
2022-09-28T06:15:35.382Z,17.88
2022-09-28T06:18:09.470Z,17.91
2022-09-28T06:20:44.048Z,18.05
2022-09-28T06:23:17.660Z,18.16
2022-09-28T06:25:45.757Z,18.21
2022-09-28T06:28:14.677Z,18.60
2022-09-28T06:30:42.826Z,18.63
2022-09-28T06:33:14.403Z,18.60
2022-09-28T06:35:43.648Z,18.58
2022-09-28T06:38:11.058Z,18.69
2022-09-28T06:40:38.486Z,18.80
2022-09-28T06:43:14.541Z,18.95
2022-09-28T06:46:00.200Z,19.06
2022-09-28T06:48:45.747Z,19.08
2022-09-28T06:51:17.439Z,18.91
2022-09-28T06:54:04.734Z,18.97
2022-09-28T06:56:40.761Z,18.94
2022-09-28T06:59:07.679Z,18.93
2022-09-28T07:01:36.276Z,19.02
2022-09-28T07:04:42.924Z,19.06
2022-09-28T07:07:40.620Z,19.28
2022-09-28T07:10:28.982Z,19.46
2022-09-28T07:13:46.470Z,19.49
2022-09-28T07:16:07.921Z,19.53
2022-09-28T07:18:35.689Z,19.63
2022-09-28T07:21:04.163Z,19.64
2022-09-28T07:23:32.239Z,19.38
2022-09-28T07:26:23.635Z,19.33
2022-09-28T07:29:09.179Z,19.21
2022-09-28T07:32:00.223Z,19.28
2022-09-28T07:34:44.051Z,19.37
2022-09-28T07:37:19.221Z,19.59
2022-09-28T07:40:06.379Z,20.05
2022-09-28T07:42:38.422Z,20.30
2022-09-28T07:45:07.065Z,20.53
2022-09-28T07:47:35.245Z,20.58
2022-09-28T07:50:21.559Z,20.77
2022-09-28T07:53:02.258Z,20.94
2022-09-28T07:55:32.179Z,20.85
2022-09-28T07:58:10.904Z,21.11
2022-09-28T08:01:08.074Z,21.48
2022-09-28T08:03:35.617Z,21.36
2022-09-28T08:06:07.197Z,21.48
2022-09-28T08:08:35.481Z,21.70
2022-09-28T08:11:03.063Z,21.74
2022-09-28T08:13:48.872Z,21.55
2022-09-28T08:19:14.485Z,22.14
2022-09-28T08:21:47.305Z,22.17
2022-09-28T08:24:16.616Z,22.13
2022-09-28T08:26:45.795Z,22.00
2022-09-28T08:29:16.974Z,22.20
2022-09-28T08:31:43.759Z,22.18
2022-09-28T08:34:30.738Z,22.31
2022-09-28T08:37:09.769Z,22.37
2022-09-28T08:39:57.653Z,22.29
2022-09-28T08:42:48.584Z,22.49
2022-09-28T08:45:41.823Z,22.54
2022-09-28T08:49:13.307Z,22.73
2022-09-28T08:52:23.956Z,22.69
2022-09-28T08:55:39.445Z,22.87
2022-09-28T08:58:14.950Z,23.03
2022-09-28T09:00:54.215Z,23.18
2022-09-28T09:03:36.054Z,23.18
2022-09-28T09:06:44.330Z,23.23
2022-09-28T09:09:35.876Z,22.99
2022-09-28T09:12:23.109Z,22.76
2022-09-28T09:15:32.566Z,22.91
2022-09-28T09:18:44.041Z,23.05
2022-09-28T09:22:01.201Z,23.29
2022-09-28T09:24:37.690Z,23.44
2022-09-28T09:27:18.247Z,23.53
2022-09-28T09:29:53.621Z,23.56
2022-09-28T09:32:45.433Z,23.72
2022-09-28T09:35:39.316Z,23.88
2022-09-28T09:38:53.652Z,23.82
2022-09-28T09:41:52.135Z,23.41
2022-09-28T09:44:52.968Z,23.92
2022-09-28T09:48:04.674Z,23.76
2022-09-28T09:50:45.999Z,23.68
2022-09-28T09:53:24.401Z,23.84
2022-09-28T09:56:01.608Z,24.17
2022-09-28T09:58:52.283Z,24.44
2022-09-28T10:01:47.477Z,24.55
2022-09-28T10:04:57.528Z,24.70
2022-09-28T10:07:43.573Z,24.43
2022-09-28T10:10:33.722Z,23.97
2022-09-28T10:13:08.969Z,24.00
2022-09-28T10:15:36.772Z,24.31
2022-09-28T10:18:32.617Z,24.56
2022-09-28T10:21:37.583Z,24.90
2022-09-28T10:24:41.418Z,25.02
2022-09-28T10:27:14.952Z,24.63
2022-09-28T10:29:51.182Z,24.76
2022-09-28T10:32:25.121Z,25.06
2022-09-28T10:35:12.222Z,25.05
2022-09-28T10:37:59.791Z,25.13
2022-09-28T10:41:13.484Z,25.26
2022-09-28T10:44:10.927Z,25.40
2022-09-28T10:46:55.465Z,25.50
2022-09-28T10:49:25.157Z,25.66
2022-09-28T10:51:57.448Z,25.58
2022-09-28T10:54:32.636Z,25.68
2022-09-28T10:57:00.967Z,25.68
2022-09-28T10:59:48.056Z,25.65
2022-09-28T11:02:47.333Z,25.54
2022-09-28T11:05:30.294Z,25.56
2022-09-28T11:08:02.765Z,25.68
2022-09-28T11:10:38.211Z,25.99
2022-09-28T11:13:12.635Z,25.94
2022-09-28T11:15:44.492Z,26.05
2022-09-28T11:18:20.070Z,26.27
2022-09-28T11:20:47.223Z,26.25
2022-09-28T11:23:21.681Z,26.27
2022-09-28T11:26:04.431Z,26.42
2022-09-28T11:28:34.998Z,26.41
2022-09-28T11:31:08.949Z,26.42
2022-09-28T11:33:47.791Z,26.25
2022-09-28T11:36:35.384Z,26.28
2022-09-28T11:39:18.200Z,26.26
2022-09-28T11:42:35.645Z,26.28
2022-09-28T11:45:44.385Z,26.13
2022-09-28T11:48:18.921Z,26.33
2022-09-28T11:51:00.375Z,26.28
2022-09-28T11:53:42.581Z,26.27
2022-09-28T11:56:27.467Z,26.33
2022-09-28T11:59:01.107Z,26.25
2022-09-28T12:01:48.651Z,26.27
2022-09-28T12:04:41.135Z,26.32
2022-09-28T12:07:19.638Z,26.31
2022-09-28T12:10:09.511Z,26.22
2022-09-28T12:12:48.676Z,26.29
2022-09-28T12:15:21.596Z,26.32
2022-09-28T12:17:54.447Z,26.35
2022-09-28T12:20:32.653Z,26.46
2022-09-28T12:22:59.386Z,26.38
2022-09-28T12:25:28.903Z,26.26
2022-09-28T12:28:13.562Z,26.22
2022-09-28T12:30:43.859Z,26.13
2022-09-28T12:33:13.204Z,26.11
2022-09-28T12:35:58.428Z,26.21
2022-09-28T12:38:27.963Z,26.16
2022-09-28T12:41:11.617Z,26.18
2022-09-28T12:44:08.857Z,26.14
2022-09-28T12:46:48.955Z,26.18
2022-09-28T12:50:27.314Z,26.25
2022-09-28T12:52:45.895Z,26.37
2022-09-28T12:55:25.040Z,26.39
2022-09-28T12:58:08.784Z,26.19
2022-09-28T13:01:07.775Z,25.99
2022-09-28T13:04:13.391Z,26.04
2022-09-28T13:06:43.369Z,26.02
2022-09-28T13:09:24.708Z,25.97
2022-09-28T13:12:22.680Z,26.08
2022-09-28T13:15:06.029Z,26.11
2022-09-28T13:17:46.734Z,26.21
2022-09-28T13:20:25.672Z,26.16
2022-09-28T13:23:19.098Z,26.09
2022-09-28T13:26:01.536Z,26.06
2022-09-28T13:28:29.621Z,26.09
2022-09-28T13:33:35.812Z,26.14
2022-09-28T13:36:22.587Z,26.16
2022-09-28T13:38:49.877Z,26.11
2022-09-28T13:41:29.843Z,26.15
2022-09-28T13:44:16.769Z,26.24
2022-09-28T13:46:49.477Z,26.15
2022-09-28T13:49:54.059Z,26.21
2022-09-28T13:52:48.251Z,26.13
2022-09-28T13:55:48.395Z,26.10
2022-09-28T15:02:56.662Z,25.59
2022-09-28T15:08:44.098Z,25.67
2022-09-28T15:11:18.132Z,25.65
2022-09-28T15:13:44.987Z,25.55
2022-09-28T15:16:15.555Z,25.54
2022-09-28T15:19:04.091Z,25.40
2022-09-28T15:21:37.728Z,25.51
2022-09-28T15:24:33.986Z,25.47
2022-09-28T15:27:02.607Z,25.51
2022-09-28T15:29:33.699Z,25.43
2022-09-28T15:32:02.121Z,25.36
2022-09-28T15:34:52.807Z,25.30
2022-09-28T15:37:22.971Z,25.23
2022-09-28T15:39:51.864Z,25.15
2022-09-28T15:42:19.376Z,25.03
2022-09-28T15:45:01.426Z,24.93
2022-09-28T15:47:31.871Z,24.87
2022-09-28T15:49:58.766Z,24.81
2022-09-28T15:52:30.669Z,24.70
2022-09-28T15:54:57.698Z,24.55
2022-09-28T15:57:33.619Z,24.44
2022-09-28T16:00:01.139Z,24.31
2022-09-28T16:02:28.066Z,24.00
2022-09-28T16:04:59.078Z,23.95
2022-09-28T16:07:38.534Z,23.75
2022-09-28T16:10:11.340Z,23.61
2022-09-28T16:12:39.111Z,23.48
2022-09-28T16:15:07.696Z,23.40
2022-09-28T16:17:35.392Z,23.32
2022-09-28T16:20:17.611Z,23.29
2022-09-28T16:22:45.255Z,23.11
2022-09-28T16:25:24.220Z,23.18
2022-09-28T16:27:53.455Z,23.07
2022-09-28T16:30:25.982Z,23.11
2022-09-28T16:33:05.218Z,23.07
2022-09-28T16:35:34.375Z,23.12
2022-09-28T16:38:19.879Z,23.16
2022-09-28T16:40:56.382Z,23.20
2022-09-28T16:43:28.667Z,23.12
2022-09-28T16:46:00.761Z,23.10
2022-09-28T16:48:30.293Z,23.07
2022-09-28T16:50:57.935Z,22.95
2022-09-28T16:53:43.431Z,22.84
2022-09-28T16:56:11.526Z,22.70
2022-09-28T16:58:39.192Z,22.60
2022-09-28T17:01:09.700Z,22.29
2022-09-28T17:03:36.731Z,22.32
2022-09-28T17:06:06.271Z,22.21
2022-09-28T17:08:35.501Z,22.26
2022-09-28T17:11:15.540Z,22.17
2022-09-28T17:13:46.016Z,22.28
2022-09-28T17:16:32.678Z,22.00
2022-09-28T17:19:19.448Z,21.88
2022-09-28T17:21:48.272Z,21.75
2022-09-28T17:24:15.183Z,21.60
2022-09-28T17:26:44.509Z,21.64
2022-09-28T17:29:16.876Z,21.45
2022-09-28T17:31:45.408Z,21.19
2022-09-28T17:34:16.293Z,21.12
2022-09-28T17:36:44.835Z,21.32
2022-09-28T17:39:16.850Z,21.15
2022-09-28T17:41:43.731Z,21.22
2022-09-28T17:44:11.170Z,21.05
2022-09-28T17:46:40.772Z,20.95
2022-09-28T17:49:11.658Z,20.88
2022-09-28T17:51:38.778Z,20.81
2022-09-28T17:54:08.094Z,20.74
2022-09-28T17:56:39.056Z,20.83
2022-09-28T17:59:10.272Z,20.87
2022-09-28T18:01:39.313Z,20.98
2022-09-28T18:04:08.845Z,21.14
2022-09-28T18:06:39.418Z,21.05
2022-09-28T18:09:06.313Z,21.02
2022-09-28T18:11:33.798Z,20.99
2022-09-28T18:14:21.606Z,20.87
2022-09-28T18:16:48.653Z,20.93
2022-09-28T18:19:15.537Z,20.95
2022-09-28T18:21:42.466Z,20.93
2022-09-28T18:24:09.275Z,20.98
2022-09-28T18:26:39.517Z,20.97
2022-09-28T18:29:07.441Z,21.13
2022-09-28T18:31:34.363Z,21.12
2022-09-28T18:34:02.373Z,21.14
2022-09-28T18:36:33.252Z,21.11
2022-09-28T18:39:01.486Z,20.95
2022-09-28T18:41:29.369Z,20.91
2022-09-28T18:44:00.931Z,20.81
2022-09-28T18:46:36.382Z,20.59
2022-09-28T18:49:04.609Z,20.31
2022-09-28T18:51:31.406Z,20.38
2022-09-28T18:53:58.227Z,20.39
2022-09-28T18:56:25.630Z,20.32
2022-09-28T18:58:53.630Z,20.04
2022-09-28T19:01:30.331Z,19.89
2022-09-28T19:04:06.263Z,19.86
2022-09-28T19:06:37.393Z,19.79
2022-09-28T19:09:05.855Z,19.74
2022-09-28T19:11:32.889Z,19.78
2022-09-28T19:13:59.823Z,19.79
2022-09-28T19:16:28.770Z,19.80
2022-09-28T19:18:57.359Z,19.73
2022-09-28T19:21:24.593Z,19.91
2022-09-28T19:23:54.438Z,20.07
2022-09-28T19:26:27.525Z,20.10
2022-09-28T19:28:56.715Z,20.25
2022-09-28T19:31:26.591Z,20.22
2022-09-28T19:33:53.433Z,20.37
2022-09-28T19:36:23.700Z,20.36
2022-09-28T19:38:51.993Z,19.89
2022-09-28T19:41:43.070Z,19.64
2022-09-28T19:44:16.121Z,19.73
2022-09-28T19:46:43.499Z,19.61
2022-09-28T19:49:13.996Z,19.43
2022-09-28T19:52:01.662Z,19.24
2022-09-28T19:54:35.559Z,19.05
2022-09-28T19:57:08.748Z,19.01
2022-09-28T19:59:37.333Z,19.12
2022-09-28T20:02:21.506Z,19.01
2022-09-28T20:04:50.109Z,19.19
2022-09-28T20:07:17.390Z,19.28
2022-09-28T20:09:44.232Z,19.35
2022-09-28T20:12:12.363Z,19.24
2022-09-28T20:14:42.612Z,19.16
2022-09-28T20:17:09.939Z,19.25
2022-09-28T20:19:38.546Z,19.43
2022-09-28T20:22:05.678Z,19.47
2022-09-28T20:24:33.122Z,19.60
2022-09-28T20:27:01.442Z,19.73
2022-09-28T20:29:28.671Z,19.78
2022-09-28T20:31:55.750Z,20.04
2022-09-28T20:34:22.647Z,20.08
2022-09-28T20:36:49.526Z,20.12
2022-09-28T20:39:16.578Z,20.09
2022-09-28T20:41:43.520Z,20.04
2022-09-28T20:44:10.578Z,19.95
2022-09-28T20:46:38.321Z,19.75
2022-09-28T20:49:07.082Z,19.86
2022-09-28T20:51:36.315Z,19.86
2022-09-28T20:54:03.188Z,19.71
2022-09-28T20:56:37.512Z,19.81
2022-09-28T20:59:09.950Z,19.64
2022-09-28T21:01:37.143Z,19.65
2022-09-28T21:04:07.751Z,19.34
2022-09-28T21:06:37.280Z,19.15
2022-09-28T21:09:05.835Z,19.19
2022-09-28T21:11:35.646Z,18.64
2022-09-28T21:14:05.752Z,18.36
2022-09-28T21:16:33.901Z,18.20
2022-09-28T21:19:03.152Z,18.34
2022-09-28T21:21:30.075Z,18.60
2022-09-28T21:23:58.097Z,18.94
2022-09-28T21:26:28.549Z,19.10
2022-09-28T21:29:00.315Z,19.36
2022-09-28T21:31:30.505Z,19.35
2022-09-28T21:33:57.731Z,19.45
2022-09-28T21:36:25.695Z,19.41
2022-09-28T21:38:55.120Z,19.48
2022-09-28T21:41:22.578Z,19.59
2022-09-28T21:43:49.431Z,19.44
2022-09-28T21:46:17.618Z,19.22
2022-09-28T21:48:44.736Z,19.23
2022-09-28T21:51:14.695Z,18.94
2022-09-28T21:53:41.636Z,18.87
2022-09-28T21:56:12.559Z,18.97
2022-09-28T21:58:40.139Z,18.88
2022-09-28T22:01:15.439Z,19.04
2022-09-28T22:03:44.089Z,18.92
2022-09-28T22:06:11.814Z,18.79
2022-09-28T22:08:39.495Z,18.81
2022-09-28T22:11:12.569Z,18.71
2022-09-28T22:13:42.491Z,18.57
2022-09-28T22:16:10.819Z,18.56
2022-09-28T22:18:37.873Z,18.23
2022-09-28T22:21:06.501Z,18.36
2022-09-28T22:23:34.487Z,18.51
2022-09-28T22:26:05.257Z,18.38
2022-09-28T22:28:32.075Z,18.38
2022-09-28T22:30:59.428Z,18.22
2022-09-28T22:33:27.343Z,18.10
2022-09-28T22:35:56.858Z,18.22
2022-09-28T22:38:27.405Z,18.26
2022-09-28T22:40:56.253Z,18.39
2022-09-28T22:43:25.109Z,18.38
2022-09-28T22:46:03.389Z,18.40
2022-09-28T22:48:30.591Z,18.51
2022-09-28T22:50:57.416Z,18.38
2022-09-28T22:53:24.456Z,18.37
2022-09-28T22:55:51.300Z,18.25
2022-09-28T22:58:18.220Z,18.21
2022-09-28T23:00:45.061Z,18.20
2022-09-28T23:03:14.242Z,18.28
2022-09-28T23:05:41.256Z,17.90
2022-09-28T23:08:08.166Z,17.55
2022-09-28T23:10:34.964Z,17.50
2022-09-28T23:13:01.787Z,17.52
2022-09-28T23:15:29.025Z,17.66
2022-09-28T23:17:55.891Z,17.76
2022-09-28T23:20:23.738Z,17.92
2022-09-28T23:22:50.648Z,18.08
2022-09-28T23:25:18.707Z,18.09
2022-09-28T23:27:50.128Z,18.29
2022-09-28T23:30:19.187Z,18.31
2022-09-28T23:32:46.367Z,18.06
2022-09-28T23:35:14.225Z,17.99
2022-09-28T23:37:41.014Z,17.78
2022-09-28T23:40:08.154Z,17.71
2022-09-28T23:42:35.532Z,17.59
2022-09-28T23:45:02.423Z,17.56
2022-09-28T23:47:30.380Z,17.54
2022-09-28T23:49:57.193Z,17.52
2022-09-28T23:52:24.081Z,17.48
2022-09-28T23:54:50.934Z,17.35
2022-09-28T23:57:17.844Z,17.44
2022-09-28T23:59:44.819Z,17.50
